CNH67B UKFF-UKOH
Flight info
| Callsign | CNH67B |
|---|---|
| Flight time | 0h 20m |
| Altitude | 20000 |
| Route | DCT |
| Aircraft | IL76/H-SDFGRWY/S |
Departure
| Time | 2026-04-25 19:35 |
|---|---|
| Airport | Simferopol International Airport (UKFF) |
Arrival
| Time | 2026-04-25 19:56 |
|---|---|
| Airport | Kherson International Airport (UKOH) |
| Time | Latitude | Longitude | Altitude | Speed | Heading |
|---|---|---|---|---|---|
| 2026-04-25 19:35 | 45.25693 | 33.79556 | 4409 ft | 213 kts | 342° |
| 2026-04-25 19:35 | 45.27137 | 33.78997 | 4946 ft | 215 kts | 342° |
| 2026-04-25 19:35 | 45.28563 | 33.78443 | 5467 ft | 217 kts | 342° |
| 2026-04-25 19:36 | 45.30015 | 33.77875 | 5993 ft | 218 kts | 342° |
| 2026-04-25 19:36 | 45.31411 | 33.77049 | 6501 ft | 216 kts | 327° |
| 2026-04-25 19:36 | 45.32705 | 33.75972 | 7039 ft | 220 kts | 327° |
| 2026-04-25 19:36 | 45.34053 | 33.74824 | 7592 ft | 233 kts | 327° |
| 2026-04-25 19:37 | 45.35438 | 33.73631 | 8122 ft | 237 kts | 327° |
| 2026-04-25 19:37 | 45.36842 | 33.72411 | 8646 ft | 238 kts | 327° |
| 2026-04-25 19:37 | 45.38265 | 33.71166 | 9175 ft | 240 kts | 327° |
| 2026-04-25 19:37 | 45.39671 | 33.69933 | 9696 ft | 241 kts | 327° |
| 2026-04-25 19:38 | 45.41101 | 33.68667 | 10224 ft | 243 kts | 327° |
| 2026-04-25 19:38 | 45.42530 | 33.67394 | 10749 ft | 245 kts | 327° |
| 2026-04-25 19:38 | 45.43975 | 33.66097 | 11281 ft | 252 kts | 327° |
| 2026-04-25 19:38 | 45.45520 | 33.64701 | 11458 ft | 279 kts | 327° |
| 2026-04-25 19:39 | 45.47248 | 33.63132 | 11509 ft | 309 kts | 327° |
| 2026-04-25 19:39 | 45.49151 | 33.61401 | 11553 ft | 339 kts | 327° |
| 2026-04-25 19:39 | 45.51210 | 33.59525 | 11591 ft | 366 kts | 327° |
| 2026-04-25 19:39 | 45.53371 | 33.57551 | 12268 ft | 372 kts | 327° |
| 2026-04-25 19:40 | 45.55526 | 33.55580 | 13018 ft | 377 kts | 327° |
| 2026-04-25 19:40 | 45.57607 | 33.53405 | 13812 ft | 373 kts | 318° |
| 2026-04-25 19:40 | 45.59092 | 33.50466 | 13675 ft | 360 kts | 298° |
| 2026-04-25 19:40 | 45.60231 | 33.47316 | 13676 ft | 355 kts | 298° |
| 2026-04-25 19:41 | 45.61685 | 33.44487 | 13600 ft | 355 kts | 316° |
| 2026-04-25 19:41 | 45.63457 | 33.42138 | 14051 ft | 354 kts | 318° |
| 2026-04-25 19:41 | 45.65353 | 33.39796 | 14586 ft | 361 kts | 319° |
| 2026-04-25 19:41 | 45.66627 | 33.38232 | 14941 ft | 368 kts | 319° |
| 2026-04-25 19:42 | 45.69228 | 33.35049 | 15647 ft | 379 kts | 319° |
| 2026-04-25 19:42 | 45.71252 | 33.32573 | 16191 ft | 387 kts | 319° |
| 2026-04-25 19:42 | 45.73331 | 33.30068 | 16870 ft | 391 kts | 323° |
| 2026-04-25 19:42 | 45.75725 | 33.28332 | 17524 ft | 394 kts | 335° |
| 2026-04-25 19:43 | 45.78042 | 33.26275 | 18157 ft | 396 kts | 322° |
| 2026-04-25 19:43 | 45.80248 | 33.23875 | 18747 ft | 400 kts | 322° |
| 2026-04-25 19:43 | 45.82451 | 33.21467 | 19345 ft | 403 kts | 322° |
| 2026-04-25 19:43 | 45.84704 | 33.19009 | 19939 ft | 407 kts | 322° |
| 2026-04-25 19:44 | 45.86975 | 33.16531 | 20421 ft | 411 kts | 322° |
| 2026-04-25 19:44 | 45.89285 | 33.14011 | 20060 ft | 429 kts | 322° |
| 2026-04-25 19:44 | 45.91445 | 33.11659 | 21984 ft | 376 kts | 322° |
| 2026-04-25 19:44 | 45.93610 | 33.09302 | 19799 ft | 444 kts | 322° |
| 2026-04-25 19:45 | 45.95911 | 33.06779 | 20966 ft | 390 kts | 322° |
| 2026-04-25 19:45 | 45.98020 | 33.04473 | 21347 ft | 399 kts | 322° |
| 2026-04-25 19:45 | 46.00377 | 33.02156 | 21262 ft | 418 kts | 327° |
| 2026-04-25 19:45 | 46.02838 | 32.99972 | 21739 ft | 422 kts | 328° |
| 2026-04-25 19:46 | 46.05326 | 32.97797 | 22335 ft | 423 kts | 328° |
| 2026-04-25 19:46 | 46.07847 | 32.95592 | 22981 ft | 420 kts | 328° |
| 2026-04-25 19:46 | 46.10347 | 32.93401 | 23047 ft | 421 kts | 328° |
| 2026-04-25 19:46 | 46.12837 | 32.91214 | 22908 ft | 419 kts | 328° |
| 2026-04-25 19:47 | 46.15305 | 32.89040 | 22710 ft | 416 kts | 328° |
| 2026-04-25 19:47 | 46.17855 | 32.87036 | 22505 ft | 414 kts | 334° |
| 2026-04-25 19:47 | 46.20449 | 32.85268 | 22307 ft | 413 kts | 334° |
| 2026-04-25 19:47 | 46.22989 | 32.83460 | 22110 ft | 412 kts | 333° |
| 2026-04-25 19:48 | 46.25547 | 32.81626 | 21910 ft | 411 kts | 333° |
| 2026-04-25 19:48 | 46.28106 | 32.79787 | 21709 ft | 410 kts | 333° |
| 2026-04-25 19:48 | 46.30608 | 32.77909 | 21510 ft | 409 kts | 332° |
| 2026-04-25 19:48 | 46.33129 | 32.76014 | 21309 ft | 408 kts | 332° |
| 2026-04-25 19:49 | 46.35653 | 32.74111 | 21053 ft | 407 kts | 332° |
| 2026-04-25 19:49 | 46.37312 | 32.72860 | 20624 ft | 406 kts | 332° |
| 2026-04-25 19:49 | 46.40609 | 32.70367 | 19793 ft | 402 kts | 332° |
| 2026-04-25 19:49 | 46.43077 | 32.68495 | 19109 ft | 401 kts | 332° |
| 2026-04-25 19:50 | 46.47671 | 32.65000 | 17376 ft | 333 kts | 332° |
| 2026-04-25 19:50 | 46.49623 | 32.63560 | 16484 ft | 303 kts | 334° |
| 2026-04-25 19:50 | 46.51422 | 32.62300 | 15617 ft | 285 kts | 334° |
| 2026-04-25 19:51 | 46.53189 | 32.61060 | 14755 ft | 281 kts | 334° |
| 2026-04-25 19:51 | 46.54943 | 32.59827 | 13920 ft | 284 kts | 334° |
| 2026-04-25 19:51 | 46.56756 | 32.58547 | 13155 ft | 303 kts | 333° |
| 2026-04-25 19:51 | 46.58436 | 32.56691 | 12178 ft | 301 kts | 308° |
| 2026-04-25 19:52 | 46.59215 | 32.54087 | 11249 ft | 278 kts | 281° |
| 2026-04-25 19:52 | 46.59213 | 32.51382 | 10225 ft | 268 kts | 253° |
| 2026-04-25 19:52 | 46.58345 | 32.49101 | 9284 ft | 263 kts | 235° |
| 2026-04-25 19:52 | 46.57347 | 32.46896 | 8254 ft | 260 kts | 249° |
| 2026-04-25 19:53 | 46.57209 | 32.44378 | 7267 ft | 254 kts | 285° |
| 2026-04-25 19:53 | 46.58077 | 32.42256 | 6324 ft | 248 kts | 320° |
| 2026-04-25 19:53 | 46.59563 | 32.41284 | 5376 ft | 231 kts | 353° |
| 2026-04-25 19:53 | 46.61037 | 32.41739 | 4329 ft | 222 kts | 30° |
| 2026-04-25 19:54 | 46.62241 | 32.43022 | 3342 ft | 214 kts | 37° |
| 2026-04-25 19:54 | 46.63388 | 32.44305 | 2381 ft | 203 kts | 38° |
| 2026-04-25 19:54 | 46.64415 | 32.45474 | 1760 ft | 184 kts | 39° |
| 2026-04-25 19:54 | 46.65054 | 32.46254 | 1430 ft | 178 kts | 39° |
| 2026-04-25 19:55 | 46.65828 | 32.47997 | 649 ft | 143 kts | 83° |
| 2026-04-25 19:55 | 46.66145 | 32.49209 | 355 ft | 125 kts | 44° |
| 2026-04-25 19:55 | 46.66860 | 32.49926 | 160 ft | 122 kts | 33° |
| 2026-04-25 19:55 | 46.67441 | 32.50472 | 159 ft | 72 kts | 33° |
| 2026-04-25 19:56 | 46.67771 | 32.50784 | 150 ft | 49 kts | 33° |
| 2026-04-25 19:56 | 46.68037 | 32.51026 | 151 ft | 40 kts | 33° |
| 2026-04-25 19:56 | 46.68134 | 32.51169 | 153 ft | 11 kts | 58° |
| 2026-04-25 19:56 | 46.68138 | 32.51181 | 153 ft | 0 kts | 76° |
| 2026-04-25 19:57 | 46.68137 | 32.51198 | 153 ft | 4 kts | 117° |
| 2026-04-25 19:57 | 46.68104 | 32.51273 | 152 ft | 15 kts | 122° |
| 2026-04-25 19:57 | 46.68068 | 32.51357 | 151 ft | 6 kts | 123° |
| 2026-04-25 19:57 | 46.68042 | 32.51386 | 150 ft | 6 kts | 182° |
| 2026-04-25 19:58 | 46.68040 | 32.51385 | 150 ft | 0 kts | 190° |
| 2026-04-25 19:58 | 46.68039 | 32.51385 | 150 ft | 0 kts | 191° |
| 2026-04-25 19:58 | 46.68012 | 32.51373 | 149 ft | 7 kts | 205° |
| 2026-04-25 19:58 | 46.67945 | 32.51304 | 148 ft | 17 kts | 214° |
| 2026-04-25 19:59 | 46.67853 | 32.51220 | 146 ft | 13 kts | 213° |
| 2026-04-25 19:59 | 46.67790 | 32.51160 | 145 ft | 8 kts | 212° |
| 2026-04-25 19:59 | 46.67753 | 32.51127 | 144 ft | 4 kts | 211° |
| 2026-04-25 19:59 | 46.67731 | 32.51105 | 144 ft | 5 kts | 217° |
| 2026-04-25 20:00 | 46.67686 | 32.51059 | 143 ft | 10 kts | 214° |
| 2026-04-25 20:00 | 46.67642 | 32.51017 | 142 ft | 13 kts | 212° |
| 2026-04-25 20:00 | 46.67548 | 32.50949 | 150 ft | 9 kts | 211° |
| 2026-04-25 20:00 | 46.67497 | 32.50902 | 153 ft | 8 kts | 212° |
| 2026-04-25 20:01 | 46.67354 | 32.50830 | 160 ft | 5 kts | 129° |
| 2026-04-25 20:01 | 46.67347 | 32.50840 | 162 ft | 2 kts | 145° |
| 2026-04-25 20:01 | 46.67321 | 32.50838 | 165 ft | 4 kts | 218° |
| 2026-04-25 20:02 | 46.67298 | 32.50818 | 164 ft | 0 kts | 204° |
| 2026-04-25 20:02 | 46.67236 | 32.50758 | 162 ft | 11 kts | 214° |
| 2026-04-25 20:02 | 46.67205 | 32.50731 | 160 ft | 0 kts | 212° |
| 2026-04-25 20:02 | 46.67204 | 32.50729 | 160 ft | 0 kts | 212° |
| 2026-04-25 20:07 | 45.03461 | 33.98584 | 624 ft | 0 kts | 275° |
| 2026-04-25 20:08 | 45.03462 | 33.98572 | 615 ft | 0 kts | 275° |